Terminal Aerodrome Forecast
Issued by NWS

Home | Current Version | Previous Version | Graphics & Text | Print | Product List | Glossary On
Versions: 1 2 3 4 5 6 7 8 9 10 11 12 13 14 15 16
000
FTUS43 KGRB 182335
TAFRHI
TAF
KRHI 182335Z 1900/1924 31005KT P6SM SCT015 BKN030
     FM190200 33004KT P6SM SCT030 BKN060
     FM190600 34003KT P6SM SCT150
     FM191900 16006KT P6SM SCT150=

USA.gov is the U.S. government's official web portal to all federal, state and local government web resources and services.